createdAt,value
2018-05-17T00:00:54.795Z,12.25
2018-05-17T00:01:54.817Z,12.27
2018-05-17T00:02:54.581Z,12.37
2018-05-17T00:03:54.905Z,12.32
2018-05-17T00:04:54.620Z,12.43
2018-05-17T00:05:54.632Z,12.58
2018-05-17T00:06:54.912Z,12.58
2018-05-17T00:07:54.927Z,12.57
2018-05-17T00:08:54.748Z,12.54
2018-05-17T00:09:54.705Z,12.62
2018-05-17T00:10:54.978Z,12.53
2018-05-17T00:11:54.748Z,12.39
2018-05-17T00:12:54.767Z,12.43
2018-05-17T00:13:55.046Z,12.42
2018-05-17T00:14:55.055Z,12.36
2018-05-17T00:15:54.821Z,12.18
2018-05-17T00:16:54.836Z,12.15
2018-05-17T00:17:54.914Z,12.21
2018-05-17T00:18:54.924Z,12.06
2018-05-17T00:19:54.893Z,12.21
2018-05-17T00:20:55.162Z,12.18
2018-05-17T00:21:55.187Z,12.32
2018-05-17T00:22:55.198Z,12.39
2018-05-17T00:23:55.029Z,12.46
2018-05-17T00:24:54.989Z,12.49
2018-05-17T00:25:55.256Z,12.49
2018-05-17T00:26:55.271Z,12.57
2018-05-17T00:27:55.290Z,12.55
2018-05-17T00:28:55.309Z,12.62
2018-05-17T00:29:55.077Z,12.67
2018-05-17T00:30:55.100Z,12.8
2018-05-17T00:31:55.370Z,12.78
2018-05-17T00:32:55.139Z,12.73
2018-05-17T00:33:55.151Z,12.86
2018-05-17T00:34:55.413Z,12.7
2018-05-17T00:35:55.441Z,12.8
2018-05-17T00:36:55.207Z,12.64
2018-05-17T00:37:55.222Z,12.47
2018-05-17T00:38:55.290Z,12.29
2018-05-17T00:39:55.262Z,12.24
2018-05-17T00:40:55.534Z,12.43
2018-05-17T00:41:55.555Z,12.28
2018-05-17T00:42:55.570Z,12.18
2018-05-17T00:43:55.591Z,12.24
2018-05-17T00:44:55.604Z,12.17
2018-05-17T00:45:55.699Z,11.94
2018-05-17T00:46:55.646Z,11.83
2018-05-17T00:47:55.420Z,11.86
2018-05-17T00:48:55.427Z,11.9
2018-05-17T00:49:55.698Z,11.86
2018-05-17T00:50:55.718Z,11.88
2018-05-17T00:51:55.746Z,11.83
2018-05-17T00:52:55.762Z,12
2018-05-17T00:53:55.831Z,11.99
2018-05-17T00:54:55.543Z,11.99
2018-05-17T00:55:55.558Z,12.03
2018-05-17T00:56:55.829Z,12.03
2018-05-17T00:57:55.848Z,12.13
2018-05-17T00:58:55.710Z,12.18
2018-05-17T00:59:55.897Z,12.18
2018-05-17T01:00:55.903Z,12.2
2018-05-17T01:01:55.679Z,12.22
2018-05-17T01:02:55.707Z,12.28
2018-05-17T01:03:55.954Z,12.32
2018-05-17T01:04:55.977Z,12.35
2018-05-17T01:05:55.483Z,12.4
2018-05-17T01:06:56.029Z,12.43
2018-05-17T01:07:56.064Z,12.42
2018-05-17T01:08:55.850Z,12.37
2018-05-17T01:09:56.061Z,12.31
2018-05-17T01:10:56.094Z,12.29
2018-05-17T01:11:55.851Z,12.18
2018-05-17T01:12:55.868Z,12.28
2018-05-17T01:13:55.882Z,12.2
2018-05-17T01:14:56.161Z,12.1
2018-05-17T01:15:56.172Z,12.13
2018-05-17T01:16:55.941Z,12.21
2018-05-17T01:17:55.967Z,12.2
2018-05-17T01:18:56.241Z,12.27
2018-05-17T01:19:56.249Z,12.32
2018-05-17T01:20:56.268Z,12.28
2018-05-17T01:21:56.031Z,12.1
2018-05-17T01:22:56.324Z,12.03
2018-05-17T01:23:56.115Z,12.09
2018-05-17T01:24:56.339Z,12.04
2018-05-17T01:25:56.371Z,12.17
2018-05-17T01:26:56.128Z,12.21
2018-05-17T01:27:56.394Z,12.29
2018-05-17T01:28:56.421Z,12.22
2018-05-17T01:29:56.203Z,12.1
2018-05-17T01:30:55.944Z,12.03
2018-05-17T01:31:56.494Z,12
2018-05-17T01:32:56.489Z,12.09
2018-05-17T01:33:56.508Z,12.1
2018-05-17T01:34:56.631Z,12.24
2018-05-17T01:35:56.555Z,12.27
2018-05-17T01:36:56.308Z,12.36
2018-05-17T01:37:56.325Z,12.35
2018-05-17T01:38:56.912Z,12.45
2018-05-17T01:39:56.613Z,12.49
2018-05-17T01:40:56.628Z,12.49
2018-05-17T01:41:56.660Z,12.37
2018-05-17T01:42:56.422Z,12.29
2018-05-17T01:43:56.440Z,12.28
2018-05-17T01:44:56.718Z,12.17
2018-05-17T01:45:56.731Z,12.18
2018-05-17T01:46:56.498Z,12.2
2018-05-17T01:47:56.768Z,12.07
2018-05-17T01:48:56.786Z,12.13
2018-05-17T01:49:56.551Z,12.28
2018-05-17T01:50:56.569Z,12.29
2018-05-17T01:51:56.587Z,12.18
2018-05-17T01:52:56.859Z,12.22
2018-05-17T01:53:56.949Z,12.29
2018-05-17T01:54:56.642Z,12.29
2018-05-17T01:55:56.916Z,12.29
2018-05-17T01:56:56.933Z,12.39
2018-05-17T01:57:56.955Z,12.49
2018-05-17T01:58:56.836Z,12.46
2018-05-17T01:59:56.993Z,12.46
2018-05-17T02:00:56.505Z,12.49
2018-05-17T02:01:56.773Z,12.47
2018-05-17T02:02:57.051Z,12.43
2018-05-17T02:03:57.064Z,12.47
2018-05-17T02:04:57.085Z,12.6
2018-05-17T02:05:57.106Z,12.58
2018-05-17T02:06:57.123Z,12.45
2018-05-17T02:07:57.141Z,12.32
2018-05-17T02:08:57.213Z,12.36
2018-05-17T02:09:57.186Z,12.29
2018-05-17T02:10:57.201Z,12.4
2018-05-17T02:11:57.216Z,12.36
2018-05-17T02:12:56.974Z,12.28
2018-05-17T02:13:57.246Z,12.22
2018-05-17T02:14:57.268Z,12.22
2018-05-17T02:15:57.039Z,12.35
2018-05-17T02:16:57.316Z,12.24
2018-05-17T02:17:56.822Z,12.15
2018-05-17T02:18:56.840Z,12.39
2018-05-17T02:19:57.113Z,12.47
2018-05-17T02:20:57.387Z,12.49
2018-05-17T02:21:57.417Z,12.39
2018-05-17T02:22:57.426Z,12.36
2018-05-17T02:23:57.499Z,12.42
2018-05-17T02:24:57.205Z,12.45
2018-05-17T02:25:57.482Z,12.42
2018-05-17T02:26:57.500Z,12.43
2018-05-17T02:27:57.517Z,12.25
2018-05-17T02:28:57.558Z,12.24
2018-05-17T02:29:57.307Z,12.22
2018-05-17T02:30:57.325Z,12.06
2018-05-17T02:31:57.480Z,12.06
2018-05-17T02:32:57.367Z,12.12
2018-05-17T02:33:57.391Z,12.12
2018-05-17T02:34:57.893Z,11.97
2018-05-17T02:35:57.671Z,11.95
2018-05-17T02:36:57.684Z,12.03
2018-05-17T02:37:57.702Z,11.94
2018-05-17T02:38:57.779Z,11.97
2018-05-17T02:39:57.489Z,12.03
2018-05-17T02:40:57.773Z,11.95
2018-05-17T02:41:57.524Z,11.87
2018-05-17T02:42:57.795Z,11.81
2018-05-17T02:43:57.826Z,11.83
2018-05-17T02:44:57.844Z,11.75
2018-05-17T02:45:57.614Z,11.84
2018-05-17T02:46:57.616Z,11.9
2018-05-17T02:47:57.896Z,11.84
2018-05-17T02:48:57.911Z,11.81
2018-05-17T02:49:57.671Z,11.72
2018-05-17T02:50:57.943Z,11.72
2018-05-17T02:51:57.995Z,11.63
2018-05-17T02:52:58.000Z,11.72
2018-05-17T02:53:58.053Z,11.72
2018-05-17T02:54:58.027Z,11.9
2018-05-17T02:55:58.128Z,11.88
2018-05-17T02:56:58.068Z,11.88
2018-05-17T02:57:58.072Z,12.03
2018-05-17T02:58:57.838Z,11.91
2018-05-17T02:59:58.117Z,11.8
2018-05-17T03:00:58.130Z,11.9
2018-05-17T03:01:58.140Z,11.65
2018-05-17T03:02:58.162Z,11.77
2018-05-17T03:03:58.225Z,11.72
2018-05-17T03:04:58.198Z,11.8
2018-05-17T03:05:57.959Z,11.84
2018-05-17T03:06:58.233Z,11.78
2018-05-17T03:07:57.997Z,11.77
2018-05-17T03:08:58.304Z,11.8
2018-05-17T03:09:58.278Z,11.9
2018-05-17T03:10:58.283Z,12.03
2018-05-17T03:11:58.307Z,12.02
2018-05-17T03:12:58.070Z,11.87
2018-05-17T03:13:58.396Z,11.99
2018-05-17T03:14:58.117Z,12.03
2018-05-17T03:15:58.125Z,11.9
2018-05-17T03:16:58.399Z,11.99
2018-05-17T03:17:58.414Z,12
2018-05-17T03:18:58.195Z,12.07
2018-05-17T03:19:58.209Z,12.06
2018-05-17T03:20:58.482Z,12.07
2018-05-17T03:21:58.501Z,12.18
2018-05-17T03:22:58.519Z,12.18
2018-05-17T03:23:58.536Z,12.2
2018-05-17T03:24:58.565Z,12.24
2018-05-17T03:25:58.320Z,12.39
2018-05-17T03:26:58.595Z,12.39
2018-05-17T03:27:58.356Z,12.32
2018-05-17T03:28:58.776Z,12.49
2018-05-17T03:29:58.398Z,12.6
2018-05-17T03:30:58.424Z,12.49
2018-05-17T03:31:58.431Z,12.46
2018-05-17T03:32:58.193Z,12.39
2018-05-17T03:33:58.467Z,12.22
2018-05-17T03:34:58.738Z,12.07
2018-05-17T03:35:58.514Z,12.02
2018-05-17T03:36:58.774Z,11.99
2018-05-17T03:37:58.542Z,12.09
2018-05-17T03:38:58.568Z,12.2
2018-05-17T03:39:58.575Z,12.32
2018-05-17T03:40:58.591Z,12.31
2018-05-17T03:41:58.857Z,12.31
2018-05-17T03:42:58.865Z,12.32
2018-05-17T03:43:58.946Z,12.32
2018-05-17T03:44:58.913Z,12.36
2018-05-17T03:45:58.941Z,12.42
2018-05-17T03:46:58.939Z,12.25
2018-05-17T03:47:58.959Z,12.32
2018-05-17T03:48:58.990Z,12.25
2018-05-17T03:49:58.998Z,12.36
2018-05-17T03:50:59.231Z,12.31
2018-05-17T03:51:59.037Z,12.28
2018-05-17T03:52:59.064Z,12.31
2018-05-17T03:53:58.826Z,12.17
2018-05-17T03:54:59.091Z,12.24
2018-05-17T03:55:59.111Z,12.13
2018-05-17T03:56:59.140Z,12.1
2018-05-17T03:57:59.150Z,12.21
2018-05-17T03:58:59.217Z,12.22
2018-05-17T03:59:59.194Z,12.28
2018-05-17T04:00:58.954Z,12.24
2018-05-17T04:01:59.229Z,12.25
2018-05-17T04:02:58.990Z,12.29
2018-05-17T04:03:59.272Z,12.29
2018-05-17T04:04:59.366Z,12.24
2018-05-17T04:05:59.058Z,12.17
2018-05-17T04:06:59.323Z,12.32
2018-05-17T04:07:59.093Z,12.37
2018-05-17T04:08:59.117Z,12.31
2018-05-17T04:09:59.388Z,12.25
2018-05-17T04:10:59.145Z,12.1
2018-05-17T04:11:59.419Z,12.18
2018-05-17T04:12:59.445Z,12.2
2018-05-17T04:13:59.622Z,12.21
2018-05-17T04:14:59.454Z,12.29
2018-05-17T04:15:59.470Z,12.32
2018-05-17T04:16:59.253Z,12.46
2018-05-17T04:17:59.513Z,12.49
2018-05-17T04:18:59.536Z,12.24
2018-05-17T04:19:59.291Z,12.42
2018-05-17T04:20:59.315Z,12.37
2018-05-17T04:21:59.583Z,12.22
2018-05-17T04:22:59.351Z,12.36
2018-05-17T04:23:59.390Z,12.42
2018-05-17T04:24:59.674Z,12.37
2018-05-17T04:25:59.686Z,12.29
2018-05-17T04:26:59.446Z,12.45
2018-05-17T04:27:59.727Z,12.42
2018-05-17T04:28:59.797Z,12.47
2018-05-17T04:29:59.502Z,12.49
2018-05-17T04:30:59.520Z,12.58
2018-05-17T04:31:59.797Z,12.58
2018-05-17T04:32:59.810Z,12.67
2018-05-17T04:33:59.842Z,12.58
2018-05-17T04:34:59.853Z,12.58
2018-05-17T04:35:59.883Z,12.57
2018-05-17T04:36:59.892Z,12.58
2018-05-17T04:37:59.653Z,12.57
2018-05-17T04:38:59.678Z,12.67
2018-05-17T04:39:59.712Z,12.6
2018-05-17T04:40:59.972Z,12.78
2018-05-17T04:41:59.986Z,12.62
2018-05-17T04:43:00.005Z,12.55
2018-05-17T04:44:00.080Z,12.62
2018-05-17T04:45:00.040Z,12.64
2018-05-17T04:46:00.063Z,12.6
2018-05-17T04:47:00.164Z,12.61
2018-05-17T04:48:00.104Z,12.62
2018-05-17T04:49:00.129Z,12.64
2018-05-17T04:50:00.139Z,12.76
2018-05-17T04:50:59.918Z,12.82
2018-05-17T04:52:00.178Z,12.9
2018-05-17T04:53:00.200Z,12.91
2018-05-17T04:54:00.214Z,12.91
2018-05-17T04:55:00.244Z,12.95
2018-05-17T04:56:00.006Z,12.94
2018-05-17T04:57:00.279Z,12.9
2018-05-17T04:58:00.288Z,12.95
2018-05-17T04:59:00.103Z,12.94
2018-05-17T05:00:00.069Z,12.98
2018-05-17T05:01:00.346Z,13.01
2018-05-17T05:02:00.110Z,12.94
2018-05-17T05:03:00.544Z,12.94
2018-05-17T05:04:00.149Z,12.9
2018-05-17T05:05:00.167Z,12.98
2018-05-17T05:06:00.444Z,12.78
2018-05-17T05:07:00.207Z,12.82
2018-05-17T05:08:00.225Z,12.93
2018-05-17T05:09:00.352Z,12.83
2018-05-17T05:10:00.533Z,12.87
2018-05-17T05:11:00.293Z,12.86
2018-05-17T05:12:00.568Z,12.94
2018-05-17T05:13:00.591Z,13
2018-05-17T05:14:00.409Z,13.03
2018-05-17T05:15:00.622Z,12.93
2018-05-17T05:16:00.397Z,12.83
2018-05-17T05:17:00.419Z,12.8
2018-05-17T05:18:00.687Z,12.97
2018-05-17T05:19:00.809Z,12.94
2018-05-17T05:20:00.728Z,12.86
2018-05-17T05:21:00.744Z,12.75
2018-05-17T05:22:00.770Z,12.7
2018-05-17T05:23:00.784Z,12.75
2018-05-17T05:24:00.818Z,12.65
2018-05-17T05:25:00.574Z,12.68
2018-05-17T05:26:00.843Z,12.65
2018-05-17T05:27:00.608Z,12.6
2018-05-17T05:28:00.627Z,12.76
2018-05-17T05:29:00.950Z,12.75
2018-05-17T05:30:00.662Z,12.91
2018-05-17T05:31:00.686Z,12.83
2018-05-17T05:32:00.961Z,12.79
2018-05-17T05:33:00.977Z,12.73
2018-05-17T05:34:01.008Z,12.91
2018-05-17T05:35:01.019Z,12.93
2018-05-17T05:36:01.035Z,13.03
2018-05-17T05:37:01.063Z,13.13
2018-05-17T05:38:01.082Z,13.2
2018-05-17T05:39:00.855Z,13.03
2018-05-17T05:40:01.188Z,13.25
2018-05-17T05:41:01.122Z,13.19
2018-05-17T05:42:00.887Z,13.3
2018-05-17T05:43:01.162Z,13.05
2018-05-17T05:44:00.977Z,13.16
2018-05-17T05:45:01.194Z,13.12
2018-05-17T05:46:01.218Z,13.12
2018-05-17T05:47:01.243Z,13.03
2018-05-17T05:48:01.257Z,13.12
2018-05-17T05:49:01.285Z,13.12
2018-05-17T05:50:01.307Z,13.16
2018-05-17T05:51:01.067Z,13.13
2018-05-17T05:52:01.335Z,13.25
2018-05-17T05:53:00.871Z,13.28
2018-05-17T05:54:00.874Z,13.37
2018-05-17T05:55:01.448Z,13.5
2018-05-17T05:56:01.171Z,13.7
2018-05-17T05:57:01.438Z,13.62
2018-05-17T05:58:01.519Z,13.74
2018-05-17T05:59:01.283Z,13.78
2018-05-17T06:00:01.500Z,13.89
2018-05-17T06:01:01.525Z,13.93
2018-05-17T06:02:01.548Z,13.81
2018-05-17T06:03:01.558Z,13.93
2018-05-17T06:04:01.381Z,13.85
2018-05-17T06:05:01.352Z,13.9
2018-05-17T06:06:01.376Z,13.97
2018-05-17T06:07:01.644Z,14.03
2018-05-17T06:08:01.416Z,14.05
2018-05-17T06:09:01.438Z,14.04
2018-05-17T06:10:01.716Z,13.89
2018-05-17T06:11:01.479Z,13.9
2018-05-17T06:12:01.768Z,14.03
2018-05-17T06:13:01.767Z,13.99
2018-05-17T06:14:01.841Z,14.08
2018-05-17T06:15:01.812Z,14.32
2018-05-17T06:16:01.834Z,14.29
2018-05-17T06:17:01.861Z,14.29
2018-05-17T06:18:01.949Z,14.35
2018-05-17T06:19:01.635Z,14.32
2018-05-17T06:20:01.913Z,14.33
2018-05-17T06:21:01.674Z,14.43
2018-05-17T06:22:01.951Z,14.5
2018-05-17T06:23:01.969Z,14.3
2018-05-17T06:24:01.997Z,14.48
2018-05-17T06:25:02.013Z,14.43
2018-05-17T06:26:02.037Z,14.54
2018-05-17T06:27:01.549Z,14.63
2018-05-17T06:28:01.828Z,14.59
2018-05-17T06:29:02.148Z,14.18
2018-05-17T06:30:02.121Z,13.97
2018-05-17T06:31:02.141Z,14.03
2018-05-17T06:32:01.926Z,13.78
2018-05-17T06:33:01.927Z,13.83
2018-05-17T06:34:01.951Z,13.83
2018-05-17T06:35:02.221Z,13.79
2018-05-17T06:36:02.250Z,13.75
2018-05-17T06:37:02.264Z,14.04
2018-05-17T06:38:02.486Z,14.07
2018-05-17T06:39:02.303Z,14.07
2018-05-17T06:40:02.330Z,14.12
2018-05-17T06:41:02.358Z,14.29
2018-05-17T06:42:02.112Z,14.45
2018-05-17T06:43:02.138Z,14.5
2018-05-17T06:44:02.758Z,14.47
2018-05-17T06:45:02.383Z,14.36
2018-05-17T06:46:02.459Z,14.35
2018-05-17T06:47:02.222Z,14.41
2018-05-17T06:48:02.491Z,14.53
2018-05-17T06:49:02.257Z,14.55
2018-05-17T06:50:02.557Z,14.62
2018-05-17T06:51:02.552Z,14.72
2018-05-17T06:52:02.804Z,14.88
2018-05-17T06:53:02.605Z,15.04
2018-05-17T06:54:02.620Z,14.99
2018-05-17T06:55:02.394Z,15.07
2018-05-17T06:56:02.419Z,14.97
2018-05-17T06:57:02.681Z,15.17
2018-05-17T06:58:02.706Z,15.11
2018-05-17T06:59:02.773Z,15.04
2018-05-17T07:00:02.504Z,14.99
2018-05-17T07:01:02.758Z,15.1
2018-05-17T07:02:02.536Z,15.33
2018-05-17T07:03:02.804Z,15.31
2018-05-17T07:04:02.877Z,15.18
2018-05-17T07:05:02.851Z,15.06
2018-05-17T07:06:02.872Z,15.11
2018-05-17T07:07:02.897Z,15.04
2018-05-17T07:08:02.914Z,15.04
2018-05-17T07:09:02.932Z,15.21
2018-05-17T07:10:02.456Z,14.96
2018-05-17T07:11:02.993Z,15
2018-05-17T07:12:03.000Z,14.85
2018-05-17T07:13:03.022Z,14.91
2018-05-17T07:14:03.051Z,14.89
2018-05-17T07:15:03.081Z,14.96
2018-05-17T07:16:03.119Z,14.94
2018-05-17T07:17:02.855Z,14.78
2018-05-17T07:18:03.397Z,14.86
2018-05-17T07:19:03.210Z,14.85
2018-05-17T07:20:02.925Z,14.82
2018-05-17T07:21:02.947Z,14.81
2018-05-17T07:22:03.223Z,14.82
2018-05-17T07:23:03.242Z,14.73
2018-05-17T07:24:03.428Z,14.88
2018-05-17T07:25:03.294Z,15.06
2018-05-17T07:26:03.053Z,15.21
2018-05-17T07:27:03.333Z,15.17
2018-05-17T07:28:03.360Z,15.18
2018-05-17T07:29:03.371Z,15.29
2018-05-17T07:30:03.399Z,15.35
2018-05-17T07:31:03.419Z,15.21
2018-05-17T07:32:03.436Z,15.39
2018-05-17T07:33:03.213Z,15.29
2018-05-17T07:34:03.277Z,15.19
2018-05-17T07:35:03.504Z,15.29
2018-05-17T07:36:03.540Z,15.42
2018-05-17T07:37:03.546Z,15.62
2018-05-17T07:38:03.332Z,15.7
2018-05-17T07:39:03.596Z,15.61
2018-05-17T07:40:03.612Z,15.55
2018-05-17T07:41:03.635Z,15.7
2018-05-17T07:42:03.147Z,15.7
2018-05-17T07:43:03.424Z,15.88
2018-05-17T07:44:03.444Z,16.05
2018-05-17T07:45:03.471Z,16.05
2018-05-17T07:46:03.740Z,16.13
2018-05-17T07:47:03.514Z,16.17
2018-05-17T07:48:03.532Z,15.95
2018-05-17T07:49:03.605Z,15.97
2018-05-17T07:50:03.837Z,15.83
2018-05-17T07:51:03.850Z,15.64
2018-05-17T07:52:03.993Z,15.76
2018-05-17T07:53:03.898Z,15.84
2018-05-17T07:54:03.659Z,16.08
2018-05-17T07:55:03.939Z,16.15
2018-05-17T07:56:03.968Z,15.98
2018-05-17T07:57:03.993Z,15.98
2018-05-17T07:58:04.011Z,16.1
2018-05-17T07:59:03.776Z,16.08
2018-05-17T08:00:04.050Z,16.32
2018-05-17T08:01:03.833Z,16.49
2018-05-17T08:02:04.096Z,16.51
2018-05-17T08:03:03.872Z,16.35
2018-05-17T08:04:04.201Z,16.36
2018-05-17T08:05:03.917Z,16.31
2018-05-17T08:06:04.192Z,15.91
2018-05-17T08:07:03.956Z,15.73
2018-05-17T08:08:04.292Z,15.9
2018-05-17T08:09:04.254Z,15.75
2018-05-17T08:10:04.275Z,15.57
2018-05-17T08:11:04.296Z,15.65
2018-05-17T08:12:04.314Z,15.79
2018-05-17T08:13:04.434Z,15.83
2018-05-17T08:14:04.107Z,15.98
2018-05-17T08:15:04.441Z,16.13
2018-05-17T08:16:04.411Z,16.28
2018-05-17T08:17:04.512Z,16.33
2018-05-17T08:18:04.371Z,16.26
2018-05-17T08:19:04.529Z,16.2
2018-05-17T08:20:04.265Z,16.32
2018-05-17T08:21:04.258Z,16.24
2018-05-17T08:22:04.539Z,16.16
2018-05-17T08:23:04.588Z,16.28
2018-05-17T08:24:04.592Z,16.26
2018-05-17T08:25:04.350Z,15.98
2018-05-17T08:26:04.635Z,16.09
2018-05-17T08:27:04.659Z,16.2
2018-05-17T08:28:04.673Z,16.1
2018-05-17T08:29:04.992Z,16.16
2018-05-17T08:30:04.732Z,16.12
2018-05-17T08:31:04.750Z,16.1
2018-05-17T08:32:04.513Z,16.23
2018-05-17T08:33:04.536Z,16.29
2018-05-17T08:34:04.860Z,16.28
2018-05-17T08:35:04.570Z,16.39
2018-05-17T08:36:04.987Z,16.36
2018-05-17T08:37:04.873Z,16.47
2018-05-17T08:38:04.893Z,16.36
2018-05-17T08:39:05.022Z,16.6
2018-05-17T08:40:04.957Z,16.51
2018-05-17T08:41:04.964Z,16.46
2018-05-17T08:42:04.976Z,16.56
2018-05-17T08:43:04.994Z,16.6
2018-05-17T08:44:05.022Z,16.65
2018-05-17T08:45:05.069Z,16.64
2018-05-17T08:46:05.061Z,16.74
2018-05-17T08:47:05.085Z,16.86
2018-05-17T08:48:04.855Z,16.75
2018-05-17T08:49:05.275Z,16.78
2018-05-17T08:50:04.902Z,16.96
2018-05-17T08:51:04.925Z,16.94
2018-05-17T08:52:04.946Z,16.9
2018-05-17T08:53:05.231Z,16.69
2018-05-17T08:54:05.254Z,16.74
2018-05-17T08:55:05.023Z,16.76
2018-05-17T08:56:05.307Z,16.84
2018-05-17T08:57:04.815Z,16.78
2018-05-17T08:58:05.345Z,16.68
2018-05-17T08:59:05.121Z,16.75
2018-05-17T09:00:05.135Z,16.75
2018-05-17T09:01:05.410Z,17.04
2018-05-17T09:02:05.181Z,16.9
2018-05-17T09:03:05.467Z,16.96
2018-05-17T09:04:05.264Z,17.05
2018-05-17T09:05:05.256Z,17.02
2018-05-17T09:06:05.591Z,17.08
2018-05-17T09:07:05.291Z,17.05
2018-05-17T09:08:05.307Z,17.01
2018-05-17T09:09:05.074Z,17.01
2018-05-17T09:10:05.360Z,16.79
2018-05-17T09:11:05.630Z,16.68
2018-05-17T09:12:05.654Z,16.6
2018-05-17T09:13:05.438Z,16.56
2018-05-17T09:14:05.693Z,16.54
2018-05-17T09:15:05.475Z,16.58
2018-05-17T09:16:05.500Z,16.56
2018-05-17T09:17:05.772Z,16.66
2018-05-17T09:18:05.803Z,16.64
2018-05-17T09:19:05.865Z,16.71
2018-05-17T09:20:05.654Z,16.91
2018-05-17T09:21:05.609Z,17.04
2018-05-17T09:22:05.880Z,17.08
2018-05-17T09:23:05.908Z,17.27
2018-05-17T09:24:05.670Z,17.36
2018-05-17T09:25:05.949Z,17.39
2018-05-17T09:26:05.967Z,17.36
2018-05-17T09:27:05.985Z,17.33
2018-05-17T09:28:06.022Z,17.34
2018-05-17T09:29:06.131Z,17.27
2018-05-17T09:30:05.809Z,17.11
2018-05-17T09:31:05.583Z,17.05
2018-05-17T09:32:06.113Z,16.99
2018-05-17T09:33:05.992Z,17.26
2018-05-17T09:34:05.953Z,17.42
2018-05-17T09:35:06.177Z,17.38
2018-05-17T09:36:05.945Z,17.36
2018-05-17T09:37:06.224Z,17.3
2018-05-17T09:38:06.237Z,17.51
2018-05-17T09:39:06.003Z,17.87
2018-05-17T09:40:06.279Z,17.68
2018-05-17T09:41:06.057Z,17.46
2018-05-17T09:42:06.339Z,17.56
2018-05-17T09:43:06.356Z,17.54
2018-05-17T09:44:06.122Z,17.56
2018-05-17T09:45:05.894Z,17.52
2018-05-17T09:46:06.428Z,17.78
2018-05-17T09:47:06.449Z,17.79
2018-05-17T09:48:06.298Z,18.11
2018-05-17T09:49:06.291Z,18.44
2018-05-17T09:50:06.277Z,18.77
2018-05-17T09:51:06.299Z,18.99
2018-05-17T09:52:06.318Z,19.07
2018-05-17T09:53:06.353Z,19.07
2018-05-17T09:54:06.483Z,19.19
2018-05-17T09:55:06.935Z,19.29
2018-05-17T09:56:06.160Z,19.49
2018-05-17T09:57:06.449Z,19.69
2018-05-17T09:58:06.712Z,19.96
2018-05-17T09:59:06.745Z,19.79
2018-05-17T10:00:06.769Z,19.81
2018-05-17T10:01:06.264Z,19.37
2018-05-17T10:02:06.543Z,19.15
2018-05-17T10:03:06.575Z,19.07
2018-05-17T10:04:06.590Z,18.98
2018-05-17T10:05:06.948Z,18.8
2018-05-17T10:06:06.909Z,18.71
2018-05-17T10:07:06.962Z,18.75
2018-05-17T10:08:06.964Z,18.58
2018-05-17T10:09:06.530Z,18.59
2018-05-17T10:10:06.762Z,18.47
2018-05-17T10:11:06.791Z,18.23
2018-05-17T10:12:07.065Z,18.08
2018-05-17T10:13:06.583Z,17.98
2018-05-17T10:14:06.650Z,17.92
2018-05-17T10:15:07.159Z,17.78
2018-05-17T10:16:07.166Z,17.68
2018-05-17T10:17:07.190Z,17.67
2018-05-17T10:18:07.210Z,17.68
2018-05-17T10:19:07.026Z,17.7
2018-05-17T10:20:07.262Z,17.65
2018-05-17T10:21:07.024Z,17.52
2018-05-17T10:22:06.793Z,17.68
2018-05-17T10:23:07.574Z,17.65
2018-05-17T10:24:07.096Z,17.39
2018-05-17T10:25:07.216Z,17.52
2018-05-17T10:26:07.393Z,17.68
2018-05-17T10:27:07.428Z,17.79
2018-05-17T10:28:07.442Z,18.03
2018-05-17T10:29:07.472Z,18.31
2018-05-17T10:30:07.252Z,18.41
2018-05-17T10:31:07.262Z,18.4
2018-05-17T10:32:07.540Z,18.49
2018-05-17T10:33:07.559Z,18.53
2018-05-17T10:34:07.134Z,18.38
2018-05-17T10:35:07.351Z,18.58
2018-05-17T10:36:07.375Z,18.74
2018-05-17T10:37:07.659Z,18.92
2018-05-17T10:38:07.675Z,18.96
2018-05-17T10:39:07.451Z,19.29
2018-05-17T10:40:07.730Z,19.33
2018-05-17T10:41:07.239Z,19.66
2018-05-17T10:42:07.328Z,19.77
2018-05-17T10:43:07.800Z,19.86
2018-05-17T10:44:07.821Z,20.06
2018-05-17T10:45:07.850Z,20.04
2018-05-17T10:46:07.615Z,19.73
2018-05-17T10:47:07.650Z,19.73
2018-05-17T10:48:07.671Z,20.06
2018-05-17T10:49:08.120Z,20.24
2018-05-17T10:50:07.714Z,20.22
2018-05-17T10:51:07.739Z,20.51
2018-05-17T10:52:07.764Z,20.41
2018-05-17T10:53:07.789Z,20.55
2018-05-17T10:54:07.821Z,20.43
2018-05-17T10:55:08.120Z,20.56
2018-05-17T10:56:07.606Z,19.92
2018-05-17T10:57:08.146Z,19.79
2018-05-17T10:58:08.173Z,20.18
2018-05-17T10:59:08.234Z,20.36
2018-05-17T11:00:08.209Z,20.37
2018-05-17T11:01:07.979Z,20.63
2018-05-17T11:02:08.266Z,20.78
2018-05-17T11:03:08.281Z,21.27
2018-05-17T11:04:07.804Z,21.35
2018-05-17T11:05:08.338Z,21.57
2018-05-17T11:06:08.112Z,21.95
2018-05-17T11:07:08.161Z,21.88
2018-05-17T11:08:08.167Z,21.72
2018-05-17T11:09:08.453Z,21.75
2018-05-17T11:10:08.223Z,22.1
2018-05-17T11:11:08.256Z,22.68
2018-05-17T11:12:08.296Z,22.8
2018-05-17T11:13:08.553Z,22.96
2018-05-17T11:14:08.645Z,22.9
2018-05-17T11:15:08.674Z,22.75
2018-05-17T11:16:08.382Z,22.59
2018-05-17T11:17:08.411Z,22.51
2018-05-17T11:18:08.700Z,22.23
2018-05-17T11:19:08.524Z,22.54
2018-05-17T11:20:08.492Z,22.78
2018-05-17T11:21:08.522Z,23.02
2018-05-17T11:22:08.803Z,22.83
2018-05-17T11:23:08.316Z,22.84
2018-05-17T11:24:08.853Z,23
2018-05-17T11:25:08.889Z,23.06
2018-05-17T11:26:08.655Z,23.15
2018-05-17T11:27:08.936Z,23.66
2018-05-17T11:28:08.967Z,24.43
2018-05-17T11:29:08.896Z,24.86
2018-05-17T11:30:09.029Z,25.25
2018-05-17T11:31:08.819Z,24.96
2018-05-17T11:32:08.827Z,24.24
2018-05-17T11:33:09.373Z,23.73
2018-05-17T11:34:09.132Z,23.71
2018-05-17T11:35:08.922Z,23.68
2018-05-17T11:36:08.687Z,23.12
2018-05-17T11:37:09.223Z,22.53
2018-05-17T11:38:09.251Z,22.18
2018-05-17T11:39:09.028Z,21.92
2018-05-17T11:40:09.295Z,21.82
2018-05-17T11:41:09.076Z,21.83
2018-05-17T11:42:09.361Z,21.73
2018-05-17T11:43:09.215Z,21.77
2018-05-17T11:44:09.355Z,21.83
2018-05-17T11:45:09.453Z,21.77
2018-05-17T11:46:09.467Z,21.64
2018-05-17T11:47:09.254Z,21.61
2018-05-17T11:48:09.537Z,21.64
2018-05-17T11:49:09.320Z,21.33
2018-05-17T11:50:09.351Z,21.67
2018-05-17T11:51:09.359Z,21.5
2018-05-17T11:52:09.382Z,21.3
2018-05-17T11:53:09.412Z,21.54
2018-05-17T11:54:09.438Z,21.27
2018-05-17T11:55:09.471Z,20.95
2018-05-17T11:56:09.492Z,21.37
2018-05-17T11:57:09.517Z,21.52
2018-05-17T11:58:09.555Z,21.42
2018-05-17T11:59:09.635Z,21.67
2018-05-17T12:00:09.598Z,20.96
2018-05-17T12:01:09.628Z,20.75
2018-05-17T12:02:09.899Z,20.87
2018-05-17T12:03:09.682Z,20.75
2018-05-17T12:04:09.962Z,20.81
2018-05-17T12:05:09.981Z,20.52
2018-05-17T12:06:09.761Z,20.59
2018-05-17T12:07:10.049Z,20.24
2018-05-17T12:08:10.065Z,19.95
2018-05-17T12:09:09.840Z,19.67
2018-05-17T12:10:09.862Z,19.96
2018-05-17T12:11:09.886Z,19.74
2018-05-17T12:12:10.176Z,19.74
2018-05-17T12:13:09.928Z,19.76
2018-05-17T12:14:10.365Z,19.89
2018-05-17T12:15:10.242Z,19.96
2018-05-17T12:16:10.270Z,20.07
2018-05-17T12:17:10.033Z,19.16
2018-05-17T12:18:10.313Z,19.15
2018-05-17T12:19:10.338Z,18.65
2018-05-17T12:20:10.364Z,18.52
2018-05-17T12:21:09.877Z,18.44
2018-05-17T12:22:10.153Z,18.4
2018-05-17T12:23:10.372Z,18.41
2018-05-17T12:24:10.206Z,18.37
2018-05-17T12:25:10.489Z,18.22
2018-05-17T12:26:10.510Z,18.28
2018-05-17T12:27:10.731Z,17.95
2018-05-17T12:28:10.045Z,18.08
2018-05-17T12:29:10.639Z,18.07
2018-05-17T12:30:10.596Z,18.05
2018-05-17T12:31:10.623Z,18.31
2018-05-17T12:32:10.388Z,18.45
2018-05-17T12:33:10.666Z,18.55
2018-05-17T12:34:10.436Z,18.38
2018-05-17T12:35:10.459Z,18.4
2018-05-17T12:36:10.477Z,18.38
2018-05-17T12:37:10.337Z,18.6
2018-05-17T12:38:10.551Z,18.71
2018-05-17T12:39:10.797Z,18.52
2018-05-17T12:40:10.569Z,18.22
2018-05-17T12:41:10.604Z,18.18
2018-05-17T12:42:10.880Z,18.13
2018-05-17T12:43:10.642Z,17.74
2018-05-17T12:44:10.716Z,17.7
2018-05-17T12:45:10.694Z,17.72
2018-05-17T12:46:10.978Z,17.86
2018-05-17T12:47:10.984Z,17.67
2018-05-17T12:48:10.768Z,17.68
2018-05-17T12:49:11.053Z,17.98
2018-05-17T12:50:10.813Z,18.16
2018-05-17T12:51:10.834Z,18.19
2018-05-17T12:52:11.124Z,18.13
2018-05-17T12:53:11.138Z,18.23
2018-05-17T12:54:11.465Z,18.37
2018-05-17T12:55:10.926Z,18.23
2018-05-17T12:56:11.203Z,18.03